Time;durP1;ratioP1;P1;durP2;ratioP2;P2;SDS_P1;SDS_P2;PMS_P1;PMS_P2;Temp;Humidity;BMP_temperature;BMP_pressure;BME280_temperature;BME280_humidity;BME280_pressure;Samples;Min_cycle;Max_cycle;Signal;HPM_P1;HPM_P2
2023/07/09 00:05:48;;;;;;;11.8;9.8;;;;;;;13.23;78.32;;;;;
2023/07/09 00:15:48;;;;;;;11.8;9.8;;;;;;;13.14;78.34;;;;;
2023/07/09 00:25:48;;;;;;;11.8;9.8;;;;;;;13.04;78.36;;;;;
2023/07/09 00:35:48;;;;;;;11;6.1;;;;;;;12.94;78.87;;;;;
2023/07/09 00:46:48;;;;;;;11;6.1;;;;;;;12.84;78.96;;;;;
2023/07/09 00:56:51;;;;;;;11;6.1;;;;;;;12.72;79.76;;;;;
2023/07/09 01:07:48;;;;;;;9.1;4.6;;;;;;;12.64;79.73;;;;;
2023/07/09 01:17:52;;;;;;;9.1;4.6;;;;;;;12.56;80.45;;;;;
2023/07/09 01:27:48;;;;;;;9.1;4.6;;;;;;;12.45;80.35;;;;;
2023/07/09 01:37:48;;;;;;;10.5;6.7;;;;;;;12.42;79.45;;;;;
2023/07/09 01:47:48;;;;;;;10.5;6.7;;;;;;;12.33;79.15;;;;;
2023/07/09 01:57:50;;;;;;;10.5;6.7;;;;;;;12.35;79.19;;;;;
2023/07/09 02:08:48;;;;;;;9.2;4.1;;;;;;;12.27;81.15;;;;;
2023/07/09 02:18:48;;;;;;;9.2;4.1;;;;;;;12.23;80.43;;;;;
2023/07/09 02:29:48;;;;;;;10;3.6;;;;;;;12.29;80.11;;;;;
2023/07/09 02:39:50;;;;;;;10;3.6;;;;;;;12.38;79.44;;;;;
2023/07/09 02:49:50;;;;;;;10;3.6;;;;;;;12.37;79.49;;;;;
2023/07/09 03:00:51;;;;;;;6.1;2.9;;;;;;;12.42;80.29;;;;;
2023/07/09 03:10:50;;;;;;;6.1;2.9;;;;;;;12.51;80.4;;;;;
2023/07/09 03:21:49;;;;;;;6.1;2.9;;;;;;;12.77;80.77;;;;;
2023/07/09 03:31:50;;;;;;;7.6;3.7;;;;;;;13.09;80.44;;;;;
2023/07/09 03:42:49;;;;;;;7.6;3.7;;;;;;;13.61;79.05;;;;;
2023/07/09 03:52:49;;;;;;;7.6;3.7;;;;;;;13.93;77.97;;;;;
2023/07/09 04:02:49;;;;;;;8.1;5.7;;;;;;;14.23;78.8;;;;;
2023/07/09 04:12:50;;;;;;;8.1;5.7;;;;;;;14.37;77.76;;;;;
2023/07/09 04:22:50;;;;;;;8.1;5.7;;;;;;;14.77;76.82;;;;;
2023/07/09 04:32:50;;;;;;;8.4;6.2;;;;;;;15.26;75.24;;;;;
2023/07/09 04:43:50;;;;;;;8.4;6.2;;;;;;;15.85;73.43;;;;;
2023/07/09 04:53:51;;;;;;;8.4;6.2;;;;;;;16.54;70.38;;;;;
2023/07/09 05:04:50;;;;;;;9.8;5.8;;;;;;;17.21;69.51;;;;;
2023/07/09 05:15:50;;;;;;;9.8;5.8;;;;;;;17.79;68.92;;;;;
2023/07/09 05:25:49;;;;;;;9.8;5.8;;;;;;;18.21;67.22;;;;;
2023/07/09 05:35:50;;;;;;;6.8;4.5;;;;;;;18.68;65.57;;;;;
2023/07/09 05:45:50;;;;;;;6.8;4.5;;;;;;;19.13;63.68;;;;;
2023/07/09 05:56:49;;;;;;;6.8;4.5;;;;;;;19.55;62.02;;;;;
2023/07/09 06:06:50;;;;;;;6;3.6;;;;;;;20.08;59.94;;;;;
2023/07/09 06:17:50;;;;;;;6;3.6;;;;;;;20.41;59.29;;;;;
2023/07/09 06:27:50;;;;;;;6;3.6;;;;;;;20.82;59.44;;;;;
2023/07/09 06:38:49;;;;;;;6.9;4;;;;;;;21.24;59.7;;;;;
2023/07/09 06:48:50;;;;;;;6.9;4;;;;;;;21.72;59.18;;;;;
2023/07/09 06:58:50;;;;;;;6.9;4.4;;;;;;;22.09;58.72;;;;;
2023/07/09 07:09:50;;;;;;;6.9;4.4;;;;;;;22.71;57.25;;;;;
2023/07/09 07:20:50;;;;;;;6.9;4.4;;;;;;;23.03;51.04;;;;;
2023/07/09 07:30:50;;;;;;;6.8;4.4;;;;;;;23.34;50.33;;;;;
2023/07/09 07:41:50;;;;;;;6.8;4.4;;;;;;;23.64;50.28;;;;;
2023/07/09 07:52:50;;;;;;;6.8;4.4;;;;;;;24.16;48.23;;;;;
2023/07/09 08:03:50;;;;;;;6.7;3.7;;;;;;;24.6;49.76;;;;;
2023/07/09 08:13:50;;;;;;;6.7;3.7;;;;;;;25.02;47.74;;;;;
2023/07/09 08:23:50;;;;;;;6.7;3.7;;;;;;;25.28;44.72;;;;;
2023/07/09 08:33:50;;;;;;;6.9;3.9;;;;;;;25.67;44.32;;;;;
2023/07/09 08:43:50;;;;;;;6.9;3.9;;;;;;;25.91;42.65;;;;;
2023/07/09 08:53:50;;;;;;;6.9;3.9;;;;;;;26.24;41.83;;;;;
2023/07/09 09:04:49;;;;;;;7.4;3.5;;;;;;;26.46;42.92;;;;;
2023/07/09 09:14:50;;;;;;;7.4;3.5;;;;;;;26.81;43.49;;;;;
2023/07/09 09:24:50;;;;;;;7.4;3.5;;;;;;;27.05;42.19;;;;;
2023/07/09 09:34:50;;;;;;;5.7;3.5;;;;;;;27.28;41.85;;;;;
2023/07/09 09:45:50;;;;;;;5.7;3.5;;;;;;;27.81;39.99;;;;;
2023/07/09 09:55:50;;;;;;;5.7;3.5;;;;;;;28.07;36.72;;;;;
2023/07/09 10:06:50;;;;;;;4.8;2.8;;;;;;;28.2;34.18;;;;;
2023/07/09 10:17:50;;;;;;;4.8;2.8;;;;;;;28.42;36.61;;;;;
2023/07/09 10:27:50;;;;;;;4.8;2.8;;;;;;;28.69;34.26;;;;;
2023/07/09 10:38:50;;;;;;;8;3.4;;;;;;;29.18;35.42;;;;;
2023/07/09 10:48:50;;;;;;;8;3.4;;;;;;;29.37;33.9;;;;;
2023/07/09 10:59:50;;;;;;;6;3.6;;;;;;;29.81;33.33;;;;;
2023/07/09 11:10:50;;;;;;;6;3.6;;;;;;;30.32;31.07;;;;;
2023/07/09 11:20:50;;;;;;;6;3.6;;;;;;;29.81;29.38;;;;;
2023/07/09 11:31:50;;;;;;;5.4;2.8;;;;;;;29.66;31.61;;;;;
2023/07/09 11:42:50;;;;;;;5.4;2.8;;;;;;;29.49;33.72;;;;;
2023/07/09 11:52:50;;;;;;;5.4;2.8;;;;;;;29.81;36.15;;;;;
2023/07/09 12:02:50;;;;;;;7.4;4;;;;;;;30.48;35.06;;;;;
2023/07/09 12:12:50;;;;;;;7.4;4;;;;;;;30.77;30.85;;;;;
2023/07/09 12:23:50;;;;;;;7.4;4;;;;;;;31.09;32.04;;;;;
2023/07/09 12:33:50;;;;;;;5.5;3.1;;;;;;;30.95;29.13;;;;;
2023/07/09 12:43:50;;;;;;;5.5;3.1;;;;;;;30.88;29.6;;;;;
2023/07/09 12:54:50;;;;;;;5.5;3.1;;;;;;;31.01;28.23;;;;;
2023/07/09 13:04:50;;;;;;;5.5;3.8;;;;;;;31.44;30.02;;;;;
2023/07/09 13:15:50;;;;;;;5.5;3.8;;;;;;;31.06;29.28;;;;;
2023/07/09 13:26:50;;;;;;;5.5;3.8;;;;;;;31.03;29.77;;;;;
2023/07/09 13:37:50;;;;;;;6.7;3.6;;;;;;;30.85;28.95;;;;;
2023/07/09 13:48:50;;;;;;;6.7;3.6;;;;;;;31.29;28.35;;;;;
2023/07/09 13:59:50;;;;;;;6.2;3.3;;;;;;;30.99;29.27;;;;;
2023/07/09 14:09:50;;;;;;;6.2;3.3;;;;;;;31.57;30.02;;;;;
2023/07/09 14:19:51;;;;;;;6.2;3.3;;;;;;;31.33;29.67;;;;;
2023/07/09 14:29:50;;;;;;;5.7;3.2;;;;;;;31.57;29.27;;;;;
2023/07/09 14:39:50;;;;;;;5.7;3.2;;;;;;;31.91;28.3;;;;;
2023/07/09 14:49:50;;;;;;;5.7;3.2;;;;;;;31.3;30.19;;;;;
2023/07/09 14:59:50;;;;;;;8;3.7;;;;;;;31.75;28.81;;;;;
2023/07/09 15:09:50;;;;;;;8;3.7;;;;;;;33.12;28.1;;;;;
2023/07/09 15:20:50;;;;;;;8;3.7;;;;;;;34.85;25.28;;;;;
2023/07/09 15:31:50;;;;;;;6.2;3.2;;;;;;;33.89;25.8;;;;;
2023/07/09 15:42:50;;;;;;;6.2;3.2;;;;;;;35.41;24.55;;;;;
2023/07/09 15:52:50;;;;;;;6.2;3.2;;;;;;;36.12;23.86;;;;;
2023/07/09 16:03:50;;;;;;;6.6;3.8;;;;;;;36.6;23.82;;;;;
2023/07/09 16:14:50;;;;;;;6.6;3.8;;;;;;;36.52;23.84;;;;;
2023/07/09 16:24:50;;;;;;;6.6;3.8;;;;;;;37.71;24.15;;;;;
2023/07/09 16:35:50;;;;;;;5.8;3.4;;;;;;;37.84;22.98;;;;;
2023/07/09 16:45:50;;;;;;;5.8;3.4;;;;;;;39;22.02;;;;;
2023/07/09 16:56:50;;;;;;;5.8;3.4;;;;;;;38.2;22.52;;;;;
2023/07/09 17:06:50;;;;;;;6.6;3.2;;;;;;;38.37;22.25;;;;;
2023/07/09 17:17:50;;;;;;;6.6;3.2;;;;;;;35.22;25.22;;;;;
2023/07/09 17:27:50;;;;;;;6.6;3.2;;;;;;;32.58;27.57;;;;;
2023/07/09 17:37:50;;;;;;;6.2;4;;;;;;;32.39;28.96;;;;;
2023/07/09 17:48:50;;;;;;;6.2;4;;;;;;;33.31;28.34;;;;;
2023/07/09 17:58:50;;;;;;;6.2;4;;;;;;;33.45;29.28;;;;;
2023/07/09 18:08:50;;;;;;;7.3;4.2;;;;;;;32.75;29.47;;;;;
2023/07/09 18:19:50;;;;;;;7.3;4.2;;;;;;;30.49;31.42;;;;;
2023/07/09 18:29:50;;;;;;;7.3;4.2;;;;;;;28.83;36.22;;;;;
2023/07/09 18:39:50;;;;;;;6.6;4.2;;;;;;;27.19;39.26;;;;;
2023/07/09 18:50:52;;;;;;;6.6;4.2;;;;;;;25.86;42.78;;;;;
2023/07/09 19:00:50;;;;;;;7.7;4.7;;;;;;;24.75;44.8;;;;;
2023/07/09 19:11:52;;;;;;;7.7;4.7;;;;;;;23.66;47.34;;;;;
2023/07/09 19:22:50;;;;;;;7.7;4.7;;;;;;;22.78;52.12;;;;;
2023/07/09 19:33:50;;;;;;;7.5;5.1;;;;;;;22.01;54.12;;;;;
2023/07/09 19:43:50;;;;;;;7.5;5.1;;;;;;;21.5;55.03;;;;;
2023/07/09 19:53:50;;;;;;;7.5;5.1;;;;;;;20.97;56.79;;;;;
2023/07/09 20:04:50;;;;;;;8.3;4.8;;;;;;;20.44;58.13;;;;;
2023/07/09 20:15:50;;;;;;;8.3;4.8;;;;;;;20.17;60;;;;;
2023/07/09 20:25:50;;;;;;;8.3;4.8;;;;;;;20;61.29;;;;;
2023/07/09 20:36:50;;;;;;;7.7;5.5;;;;;;;19.78;61.1;;;;;
2023/07/09 20:46:50;;;;;;;7.7;5.5;;;;;;;19.66;61.31;;;;;
2023/07/09 20:57:50;;;;;;;7.7;5.5;;;;;;;19.48;62.76;;;;;
2023/07/09 21:07:50;;;;;;;9.2;5.6;;;;;;;19.07;61.69;;;;;
2023/07/09 21:17:50;;;;;;;9.2;5.6;;;;;;;18.66;63.79;;;;;
2023/07/09 21:28:50;;;;;;;9.2;5.6;;;;;;;18.39;66.54;;;;;
2023/07/09 21:39:50;;;;;;;9.4;6.2;;;;;;;18.07;65.7;;;;;
2023/07/09 21:49:50;;;;;;;9.4;6.2;;;;;;;17.85;66.5;;;;;
2023/07/09 22:00:50;;;;;;;7.4;5.2;;;;;;;17.51;67.26;;;;;
2023/07/09 22:10:51;;;;;;;7.4;5.2;;;;;;;17.2;67.31;;;;;
2023/07/09 22:21:50;;;;;;;7.4;5.2;;;;;;;16.91;68.71;;;;;
2023/07/09 22:32:50;;;;;;;8.8;6;;;;;;;16.67;73.35;;;;;
2023/07/09 22:42:50;;;;;;;8.8;6;;;;;;;16.54;71.94;;;;;
2023/07/09 22:53:50;;;;;;;8.8;6;;;;;;;16.45;74.98;;;;;
2023/07/09 23:04:50;;;;;;;9.6;7;;;;;;;16.32;74.32;;;;;
2023/07/09 23:15:50;;;;;;;9.6;7;;;;;;;16.17;73.37;;;;;
2023/07/09 23:25:50;;;;;;;9.6;7;;;;;;;15.99;73.02;;;;;
2023/07/09 23:35:50;;;;;;;10.9;6.4;;;;;;;15.91;74.91;;;;;
2023/07/09 23:45:50;;;;;;;10.9;6.4;;;;;;;15.79;76.23;;;;;
2023/07/09 23:56:50;;;;;;;10.9;6.4;;;;;;;15.63;75.52;;;;;
